createdAt,value
2023-04-23T00:00:13.341Z,22.31
2023-04-23T00:02:46.889Z,22.11
2023-04-23T00:05:16.574Z,21.93
2023-04-23T00:07:45.860Z,21.66
2023-04-23T00:10:14.582Z,21.60
2023-04-23T00:12:43.757Z,21.50
2023-04-23T00:15:13.916Z,21.53
2023-04-23T00:17:42.508Z,21.81
2023-04-23T00:20:11.702Z,22.23
2023-04-23T00:22:40.422Z,21.88
2023-04-23T00:25:10.128Z,22.36
2023-04-23T00:27:39.166Z,22.23
2023-04-23T00:30:09.006Z,22.35
2023-04-23T00:32:37.540Z,22.78
2023-04-23T00:35:07.001Z,22.36
2023-04-23T00:37:35.554Z,22.45
2023-04-23T00:40:04.782Z,22.84
2023-04-23T00:42:33.403Z,22.51
2023-04-23T00:45:02.455Z,22.45
2023-04-23T00:47:31.635Z,22.04
2023-04-23T00:50:00.764Z,22.08
2023-04-23T00:52:29.381Z,21.84
2023-04-23T00:54:57.999Z,22.23
2023-04-23T00:57:26.685Z,22.08
2023-04-23T00:59:56.963Z,22.54
2023-04-23T01:02:28.124Z,22.49
2023-04-23T01:04:58.803Z,22.33
2023-04-23T01:07:27.875Z,22.22
2023-04-23T01:09:56.262Z,22.13
2023-04-23T01:12:24.788Z,22.49
2023-04-23T01:14:53.502Z,22.54
2023-04-23T01:17:22.968Z,22.10
2023-04-23T01:19:51.702Z,22.71
2023-04-23T01:22:20.617Z,22.21
2023-04-23T01:24:49.458Z,22.18
2023-04-23T01:27:20.046Z,22.52
2023-04-23T01:29:49.444Z,22.41
2023-04-23T01:32:18.481Z,22.37
2023-04-23T01:34:48.160Z,22.17
2023-04-23T01:37:17.528Z,21.81
2023-04-23T01:39:46.047Z,21.70
2023-04-23T01:42:14.590Z,21.86
2023-04-23T01:44:43.644Z,21.87
2023-04-23T01:47:12.282Z,22.01
2023-04-23T01:49:40.990Z,21.40
2023-04-23T01:52:09.713Z,21.87
2023-04-23T01:54:38.348Z,21.18
2023-04-23T01:57:07.013Z,21.41
2023-04-23T01:59:36.501Z,21.39
2023-04-23T02:02:05.482Z,21.79
2023-04-23T02:04:34.468Z,21.61
2023-04-23T02:07:03.054Z,21.35
2023-04-23T02:09:31.447Z,21.49
2023-04-23T02:11:59.908Z,21.73
2023-04-23T02:14:29.004Z,21.78
2023-04-23T02:16:57.802Z,21.64
2023-04-23T02:19:26.420Z,21.10
2023-04-23T02:21:54.871Z,21.44
2023-04-23T02:24:23.243Z,21.40
2023-04-23T02:26:51.675Z,22.34
2023-04-23T02:29:20.061Z,22.49
2023-04-23T02:31:48.583Z,22.22
2023-04-23T02:34:17.013Z,22.26
2023-04-23T02:36:45.418Z,21.99
2023-04-23T02:39:13.852Z,22.39
2023-04-23T02:41:42.292Z,22.57
2023-04-23T02:44:10.784Z,22.71
2023-04-23T02:46:39.261Z,22.39
2023-04-23T02:49:07.910Z,22.65
2023-04-23T02:51:36.343Z,22.76
2023-04-23T02:54:05.979Z,22.37
2023-04-23T02:56:34.389Z,21.68
2023-04-23T02:59:02.897Z,21.95
2023-04-23T03:01:31.599Z,21.92
2023-04-23T03:04:01.513Z,22.22
2023-04-23T03:06:31.914Z,22.09
2023-04-23T03:09:00.510Z,21.99
2023-04-23T03:11:28.981Z,21.74
2023-04-23T03:13:57.450Z,21.66
2023-04-23T03:16:28.451Z,22.08
2023-04-23T03:18:57.379Z,22.52
2023-04-23T03:21:26.142Z,22.13
2023-04-23T03:23:55.029Z,22.16
2023-04-23T03:26:23.452Z,21.90
2023-04-23T03:28:52.015Z,22.36
2023-04-23T03:31:20.865Z,22.54
2023-04-23T03:33:49.314Z,22.35
2023-04-23T03:36:18.216Z,22.66
2023-04-23T03:38:46.626Z,22.96
2023-04-23T03:41:14.955Z,22.68
2023-04-23T03:43:43.556Z,22.87
2023-04-23T03:46:12.005Z,22.32
2023-04-23T03:48:40.710Z,22.70
2023-04-23T03:51:10.048Z,22.98
2023-04-23T03:53:38.426Z,22.09
2023-04-23T03:56:07.048Z,22.19
2023-04-23T03:58:35.445Z,22.38
2023-04-23T04:01:04.127Z,22.21
2023-04-23T04:03:32.855Z,22.55
2023-04-23T04:06:01.557Z,22.51
2023-04-23T04:08:29.985Z,22.77
2023-04-23T04:10:58.498Z,22.61
2023-04-23T04:13:27.027Z,22.54
2023-04-23T04:15:56.065Z,22.25
2023-04-23T04:18:24.520Z,22.09
2023-04-23T04:20:53.468Z,22.18
2023-04-23T04:23:22.239Z,22.52
2023-04-23T04:25:51.715Z,22.39
2023-04-23T04:28:20.222Z,22.30
2023-04-23T04:30:50.361Z,22.24
2023-04-23T04:33:18.946Z,22.42
2023-04-23T04:35:49.614Z,22.77
2023-04-23T04:38:18.259Z,22.03
2023-04-23T04:40:46.791Z,21.97
2023-04-23T04:43:16.547Z,22.47
2023-04-23T04:45:45.097Z,22.35
2023-04-23T04:48:13.475Z,22.19
2023-04-23T04:50:41.974Z,22.77
2023-04-23T04:53:10.488Z,22.48
2023-04-23T04:55:38.995Z,22.45
2023-04-23T04:58:07.559Z,22.27
2023-04-23T05:00:36.223Z,22.26
2023-04-23T05:03:05.040Z,22.43
2023-04-23T05:05:34.369Z,21.94
2023-04-23T05:08:02.884Z,21.91
2023-04-23T05:10:31.406Z,22.35
2023-04-23T05:13:00.689Z,22.62
2023-04-23T05:15:29.265Z,22.23
2023-04-23T05:17:57.875Z,22.18
2023-04-23T05:20:26.386Z,22.43
2023-04-23T05:22:55.057Z,23.02
2023-04-23T05:25:23.539Z,23.23
2023-04-23T05:27:52.020Z,22.77
2023-04-23T05:30:20.594Z,22.84
2023-04-23T05:32:49.738Z,22.98
2023-04-23T05:35:18.156Z,22.95
2023-04-23T05:37:46.673Z,23.17
2023-04-23T05:40:16.552Z,23.63
2023-04-23T05:42:45.352Z,23.48
2023-04-23T05:45:13.778Z,23.43
2023-04-23T05:47:42.393Z,23.39
2023-04-23T05:50:11.553Z,22.78
2023-04-23T05:52:40.140Z,23.29
2023-04-23T05:55:09.997Z,23.43
2023-04-23T05:57:39.296Z,23.46
2023-04-23T06:00:14.604Z,23.99
2023-04-23T06:02:43.588Z,23.58
2023-04-23T06:05:12.336Z,24.19
2023-04-23T06:07:41.338Z,24.44
2023-04-23T06:10:10.927Z,24.23
2023-04-23T06:12:39.856Z,24.52
2023-04-23T06:15:09.658Z,24.83
2023-04-23T06:17:38.994Z,25.00
2023-04-23T06:20:09.052Z,25.03
2023-04-23T06:22:37.549Z,23.94
2023-04-23T06:25:06.364Z,24.44
2023-04-23T06:27:34.928Z,23.90
2023-04-23T06:30:03.613Z,24.11
2023-04-23T06:32:32.225Z,24.42
2023-04-23T06:35:02.335Z,24.79
2023-04-23T06:37:31.767Z,25.20
2023-04-23T06:40:00.543Z,24.93
2023-04-23T06:42:29.051Z,25.11
2023-04-23T06:44:59.526Z,25.46
2023-04-23T06:47:28.193Z,25.03
2023-04-23T06:49:58.092Z,23.97
2023-04-23T06:52:27.366Z,24.79
2023-04-23T06:54:55.825Z,25.58
2023-04-23T06:57:24.340Z,25.70
2023-04-23T06:59:52.779Z,25.64
2023-04-23T07:02:21.199Z,25.37
2023-04-23T07:04:50.030Z,24.86
2023-04-23T07:07:18.599Z,24.47
2023-04-23T07:09:47.016Z,24.66
2023-04-23T07:12:15.575Z,25.21
2023-04-23T07:14:44.161Z,25.57
2023-04-23T07:17:13.777Z,25.69
2023-04-23T07:19:42.437Z,25.75
2023-04-23T07:22:11.030Z,25.56
2023-04-23T07:24:39.788Z,26.05
2023-04-23T07:27:08.394Z,25.15
2023-04-23T07:29:37.015Z,25.91
2023-04-23T07:32:05.490Z,25.33
2023-04-23T07:34:38.004Z,25.11
2023-04-23T07:37:06.754Z,25.33
2023-04-23T07:39:35.310Z,25.12
2023-04-23T07:42:04.496Z,25.67
2023-04-23T07:44:32.971Z,25.25
2023-04-23T07:47:01.663Z,25.43
2023-04-23T07:49:30.088Z,24.33
2023-04-23T07:51:58.674Z,25.65
2023-04-23T07:54:27.226Z,25.96
2023-04-23T07:56:57.064Z,25.78
2023-04-23T07:59:25.819Z,25.96
2023-04-23T08:01:54.300Z,26.42
2023-04-23T08:04:22.878Z,26.44
2023-04-23T08:06:52.491Z,25.88
2023-04-23T08:09:20.967Z,26.66
2023-04-23T08:11:49.415Z,27.04
2023-04-23T08:14:18.499Z,26.87
2023-04-23T08:16:47.008Z,26.62
2023-04-23T08:19:15.556Z,26.64
2023-04-23T08:21:44.050Z,26.83
2023-04-23T08:24:12.430Z,26.79
2023-04-23T08:26:40.929Z,25.57
2023-04-23T08:29:11.021Z,25.09
2023-04-23T08:31:40.162Z,25.07
2023-04-23T08:34:08.621Z,25.34
2023-04-23T08:36:37.855Z,25.37
2023-04-23T08:39:07.219Z,25.77
2023-04-23T08:41:42.661Z,27.08
2023-04-23T08:44:19.448Z,27.38
2023-04-23T08:46:48.862Z,27.88
2023-04-23T08:49:19.028Z,26.17
2023-04-23T08:51:53.704Z,26.83
2023-04-23T08:54:27.008Z,26.46
2023-04-23T08:56:58.998Z,26.50
2023-04-23T08:59:30.044Z,27.47
2023-04-23T09:02:01.247Z,26.37
2023-04-23T09:04:31.598Z,27.03
2023-04-23T09:07:00.981Z,26.75
2023-04-23T09:09:30.446Z,27.61
2023-04-23T09:11:59.051Z,27.56
2023-04-23T09:14:27.608Z,27.39
2023-04-23T09:16:56.284Z,27.41
2023-04-23T09:19:27.763Z,27.93
2023-04-23T09:21:57.501Z,28.41
2023-04-23T09:24:26.321Z,28.22
2023-04-23T09:26:55.010Z,27.68
2023-04-23T09:29:24.731Z,28.23
2023-04-23T09:31:56.785Z,27.80
2023-04-23T09:34:25.599Z,26.42
2023-04-23T09:36:54.111Z,26.59
2023-04-23T09:39:24.049Z,27.09
2023-04-23T09:41:54.077Z,27.89
2023-04-23T09:44:23.139Z,28.33
2023-04-23T09:46:51.927Z,26.79
2023-04-23T09:49:20.857Z,26.99
2023-04-23T09:51:50.031Z,27.10
2023-04-23T09:54:22.699Z,28.35
2023-04-23T09:57:02.201Z,27.47
2023-04-23T10:02:04.136Z,27.65
2023-04-23T10:04:34.348Z,28.09
2023-04-23T10:09:42.800Z,27.88
2023-04-23T10:12:28.911Z,26.95
2023-04-23T10:15:04.928Z,27.33
2023-04-23T10:17:36.160Z,27.88
2023-04-23T10:20:07.117Z,27.24
2023-04-23T10:22:38.454Z,27.93
2023-04-23T10:25:12.177Z,27.02
2023-04-23T10:27:52.833Z,26.63
2023-04-23T10:30:23.278Z,28.74
2023-04-23T10:32:53.990Z,28.80
2023-04-23T10:35:22.604Z,27.51
2023-04-23T10:37:51.968Z,28.76
2023-04-23T10:40:32.524Z,28.12
2023-04-23T10:43:01.504Z,27.53
2023-04-23T10:45:32.074Z,27.18
2023-04-23T10:48:00.719Z,27.94
2023-04-23T10:50:31.095Z,28.32
2023-04-23T10:52:59.918Z,28.05
2023-04-23T10:55:30.358Z,28.28
2023-04-23T10:58:07.470Z,28.39
2023-04-23T11:00:43.175Z,28.50
2023-04-23T11:03:44.480Z,28.68
2023-04-23T11:06:19.417Z,28.52
2023-04-23T11:08:53.680Z,28.48
2023-04-23T11:11:40.723Z,28.88
2023-04-23T11:14:14.441Z,28.06
2023-04-23T11:16:43.288Z,26.98
2023-04-23T11:19:12.879Z,27.93
2023-04-23T11:22:12.746Z,28.12
2023-04-23T11:24:43.491Z,28.92
2023-04-23T11:27:14.825Z,28.34
2023-04-23T11:29:45.825Z,28.84
2023-04-23T11:32:17.194Z,27.81
2023-04-23T11:35:42.175Z,25.01
2023-04-23T11:38:11.184Z,25.10
2023-04-23T11:40:40.485Z,24.54
2023-04-23T11:43:09.792Z,26.47
2023-04-23T11:45:38.305Z,26.92
2023-04-23T11:48:07.108Z,26.05
2023-04-23T11:50:37.266Z,26.66
2023-04-23T11:53:10.380Z,25.31
2023-04-23T11:55:43.751Z,25.94
2023-04-23T11:58:12.401Z,26.16
2023-04-23T12:00:40.812Z,25.77
2023-04-23T12:03:09.540Z,26.35
2023-04-23T12:05:43.952Z,27.21
2023-04-23T12:08:16.536Z,26.05
2023-04-23T12:10:51.731Z,26.60
2023-04-23T12:13:24.288Z,27.17
2023-04-23T12:15:56.578Z,27.43
2023-04-23T12:18:29.850Z,26.85
2023-04-23T12:21:08.393Z,26.96
2023-04-23T12:23:38.350Z,27.27
2023-04-23T12:26:15.420Z,26.44
2023-04-23T12:28:50.476Z,26.82
2023-04-23T12:31:30.205Z,26.90
2023-04-23T12:34:07.055Z,26.82
2023-04-23T12:36:37.736Z,27.12
2023-04-23T12:39:31.798Z,25.43
2023-04-23T12:42:05.486Z,25.16
2023-04-23T12:44:35.710Z,26.21
2023-04-23T12:47:08.654Z,24.70
2023-04-23T12:49:42.030Z,26.20
2023-04-23T12:52:13.380Z,26.50
2023-04-23T12:54:44.715Z,26.62
2023-04-23T12:57:14.530Z,26.55
2023-04-23T12:59:43.243Z,25.08
2023-04-23T13:02:12.240Z,25.36
2023-04-23T13:04:40.904Z,26.42
2023-04-23T13:07:09.957Z,26.22
2023-04-23T13:09:38.744Z,26.27
2023-04-23T13:12:07.195Z,26.24
2023-04-23T13:14:36.289Z,26.65
2023-04-23T13:17:04.815Z,26.75
2023-04-23T13:19:35.239Z,26.54
2023-04-23T13:22:05.285Z,26.82
2023-04-23T13:24:33.762Z,27.52
2023-04-23T13:27:02.654Z,27.01
2023-04-23T13:29:31.268Z,26.13
2023-04-23T13:32:00.867Z,26.46
2023-04-23T13:34:30.826Z,26.05
2023-04-23T13:37:00.400Z,24.48
2023-04-23T13:39:28.932Z,26.30
2023-04-23T13:42:09.072Z,25.82
2023-04-23T13:44:38.588Z,26.39
2023-04-23T13:47:07.157Z,26.45
2023-04-23T13:49:36.108Z,25.93
2023-04-23T13:52:06.778Z,25.65
2023-04-23T13:54:35.876Z,26.19
2023-04-23T13:57:04.544Z,25.90
2023-04-23T13:59:33.084Z,25.59
2023-04-23T14:02:01.619Z,25.08
2023-04-23T14:04:30.657Z,25.02
2023-04-23T14:06:59.167Z,25.27
2023-04-23T14:09:27.654Z,25.65
2023-04-23T14:11:56.428Z,24.54
2023-04-23T14:14:25.942Z,25.22
2023-04-23T14:16:54.412Z,25.56
2023-04-23T14:19:23.776Z,25.06
2023-04-23T14:21:52.202Z,23.79
2023-04-23T14:24:28.296Z,23.44
2023-04-23T14:26:56.975Z,23.63
2023-04-23T14:29:41.001Z,24.15
2023-04-23T14:32:09.910Z,23.95
2023-04-23T14:34:39.524Z,24.22
2023-04-23T14:37:07.988Z,23.71
2023-04-23T14:39:36.545Z,23.80
2023-04-23T14:42:05.266Z,24.11
2023-04-23T14:44:33.825Z,24.86
2023-04-23T14:47:02.307Z,24.76
2023-04-23T14:49:30.970Z,24.80
2023-04-23T14:51:59.450Z,24.73
2023-04-23T14:54:28.046Z,25.06
2023-04-23T14:56:56.524Z,24.31
2023-04-23T14:59:25.024Z,24.82
2023-04-23T15:01:53.654Z,24.53
2023-04-23T15:04:22.248Z,24.45
2023-04-23T15:06:50.763Z,24.22
2023-04-23T15:09:19.253Z,24.72
2023-04-23T15:11:47.717Z,24.96
2023-04-23T15:14:31.598Z,25.15
2023-04-23T15:17:00.233Z,25.25
2023-04-23T15:19:30.937Z,25.26
2023-04-23T15:21:59.585Z,25.37
2023-04-23T15:24:28.108Z,24.93
2023-04-23T15:26:58.056Z,24.58
2023-04-23T15:29:26.672Z,23.95
2023-04-23T15:31:58.238Z,24.67
2023-04-23T15:34:27.065Z,24.04
2023-04-23T15:36:55.549Z,24.34
2023-04-23T15:39:24.798Z,23.88
2023-04-23T15:41:53.900Z,23.53
2023-04-23T15:44:22.839Z,23.90
2023-04-23T15:46:51.350Z,23.63
2023-04-23T15:49:19.783Z,23.96
2023-04-23T15:51:48.330Z,24.39
2023-04-23T15:54:16.802Z,23.92
2023-04-23T15:56:45.312Z,23.59
2023-04-23T15:59:14.047Z,24.10
2023-04-23T16:01:42.811Z,24.20
2023-04-23T16:04:12.022Z,23.56
2023-04-23T16:06:41.013Z,23.68
2023-04-23T16:09:09.607Z,23.23
2023-04-23T16:11:38.763Z,22.84
2023-04-23T16:14:09.378Z,23.58
2023-04-23T16:16:38.874Z,23.20
2023-04-23T16:19:07.507Z,23.09
2023-04-23T16:21:36.063Z,23.04
2023-04-23T16:24:04.995Z,23.28
2023-04-23T16:26:33.891Z,23.26
2023-04-23T16:31:33.810Z,23.03
2023-04-23T16:34:02.337Z,23.19
2023-04-23T16:36:32.532Z,22.95
2023-04-23T16:39:01.081Z,23.23
2023-04-23T16:41:29.744Z,23.22
2023-04-23T16:43:59.231Z,23.34
2023-04-23T16:46:30.754Z,23.14
2023-04-23T16:48:59.741Z,23.07
2023-04-23T16:51:29.656Z,23.64
2023-04-23T16:53:58.392Z,23.68
2023-04-23T16:56:27.642Z,23.40
2023-04-23T16:58:56.360Z,23.59
2023-04-23T17:01:24.967Z,23.93
2023-04-23T17:03:53.722Z,23.61
2023-04-23T17:06:25.822Z,23.80
2023-04-23T17:08:55.478Z,23.59
2023-04-23T17:11:24.985Z,23.10
2023-04-23T17:13:54.619Z,23.29
2023-04-23T17:16:26.773Z,23.39
2023-04-23T17:18:56.073Z,23.36
2023-04-23T17:21:24.917Z,23.40
2023-04-23T17:23:53.358Z,23.06
2023-04-23T17:26:21.751Z,23.22
2023-04-23T17:28:50.180Z,23.26
2023-04-23T17:31:18.739Z,23.28
2023-04-23T17:33:49.322Z,23.04
2023-04-23T17:36:18.123Z,23.11
2023-04-23T17:38:46.598Z,22.31
2023-04-23T17:41:16.937Z,22.80
2023-04-23T17:43:45.485Z,23.32
2023-04-23T17:46:14.187Z,22.79
2023-04-23T17:48:43.037Z,22.69
2023-04-23T17:51:11.515Z,23.36
2023-04-23T17:53:40.000Z,22.94
2023-04-23T17:56:08.513Z,22.55
2023-04-23T17:58:38.333Z,22.47
2023-04-23T18:01:08.483Z,22.44
2023-04-23T18:03:37.296Z,22.83
2023-04-23T18:06:06.561Z,22.70
2023-04-23T18:08:36.369Z,22.41
2023-04-23T18:11:06.785Z,22.34
2023-04-23T18:13:38.156Z,22.53
2023-04-23T18:16:06.794Z,22.29
2023-04-23T18:18:35.304Z,22.02
2023-04-23T18:21:04.580Z,22.05
2023-04-23T18:23:35.805Z,22.36
2023-04-23T18:26:04.573Z,22.28
2023-04-23T18:28:34.854Z,22.71
2023-04-23T18:31:03.895Z,23.61
2023-04-23T18:33:47.638Z,23.27
2023-04-23T18:36:31.866Z,22.71
2023-04-23T18:39:00.478Z,22.42
2023-04-23T18:41:30.019Z,21.00
2023-04-23T18:44:00.072Z,21.83
2023-04-23T18:46:31.189Z,22.16
2023-04-23T18:49:18.828Z,22.30
2023-04-23T18:51:51.772Z,22.47
2023-04-23T18:54:20.324Z,21.25
2023-04-23T18:56:50.743Z,21.11
2023-04-23T18:59:19.749Z,20.28
2023-04-23T19:01:48.304Z,20.33
2023-04-23T19:04:17.074Z,21.02
2023-04-23T19:06:45.679Z,20.78
2023-04-23T19:09:14.375Z,21.42
2023-04-23T19:11:42.861Z,21.52
2023-04-23T19:14:11.391Z,21.21
2023-04-23T19:16:39.897Z,18.61
2023-04-23T19:19:08.501Z,20.27
2023-04-23T19:21:36.968Z,19.90
2023-04-23T19:24:05.734Z,20.60
2023-04-23T19:26:34.928Z,20.64
2023-04-23T19:29:03.677Z,20.05
2023-04-23T19:31:32.387Z,19.97
2023-04-23T19:34:00.954Z,20.36
2023-04-23T19:36:30.839Z,19.90
2023-04-23T19:38:59.280Z,20.02
2023-04-23T19:41:27.720Z,20.01
2023-04-23T19:43:56.205Z,19.96
2023-04-23T19:46:24.918Z,18.83
2023-04-23T19:48:55.009Z,19.76
2023-04-23T19:51:27.902Z,19.52
2023-04-23T19:53:58.178Z,19.96
2023-04-23T19:56:26.670Z,19.52
2023-04-23T19:58:55.989Z,19.67
2023-04-23T20:01:25.492Z,19.16
2023-04-23T20:03:54.049Z,19.29
2023-04-23T20:06:22.714Z,19.27
2023-04-23T20:09:09.912Z,19.31
2023-04-23T20:11:38.580Z,19.05
2023-04-23T20:14:07.218Z,18.79
2023-04-23T20:16:36.209Z,19.25
2023-04-23T20:19:05.592Z,19.20
2023-04-23T20:21:34.750Z,19.34
2023-04-23T20:24:04.946Z,16.92
2023-04-23T20:26:34.398Z,18.89
2023-04-23T20:29:03.369Z,17.64
2023-04-23T20:31:33.249Z,17.18
2023-04-23T20:34:02.331Z,17.98
2023-04-23T20:36:33.186Z,18.36
2023-04-23T20:39:05.301Z,18.65
2023-04-23T20:41:37.173Z,17.32
2023-04-23T20:44:05.929Z,18.28
2023-04-23T20:46:36.663Z,17.55
2023-04-23T20:49:05.537Z,18.04
2023-04-23T20:51:34.289Z,17.40
2023-04-23T20:54:02.928Z,17.84
2023-04-23T20:56:31.807Z,18.18
2023-04-23T20:59:00.541Z,18.39
2023-04-23T21:01:29.182Z,18.72
2023-04-23T21:04:00.107Z,19.61
2023-04-23T21:06:31.149Z,19.32
2023-04-23T21:08:59.658Z,19.33
2023-04-23T21:11:29.364Z,18.80
2023-04-23T21:14:00.217Z,19.18
2023-04-23T21:16:29.306Z,19.47
2023-04-23T21:18:57.795Z,17.89
2023-04-23T21:21:28.039Z,19.67
2023-04-23T21:23:56.852Z,18.91
2023-04-23T21:26:25.777Z,19.67
2023-04-23T21:28:54.168Z,18.94
2023-04-23T21:31:38.626Z,19.32
2023-04-23T21:34:07.112Z,18.73
2023-04-23T21:36:35.600Z,19.50
2023-04-23T21:39:04.349Z,19.80
2023-04-23T21:41:32.806Z,19.24
2023-04-23T21:44:01.564Z,19.19
2023-04-23T21:46:32.056Z,19.33
2023-04-23T21:49:00.620Z,19.64
2023-04-23T21:51:29.911Z,19.56
2023-04-23T21:53:58.337Z,20.07
2023-04-23T21:56:26.805Z,19.54
2023-04-23T21:58:55.398Z,19.78
2023-04-23T22:01:23.866Z,19.60
2023-04-23T22:03:52.566Z,19.45
2023-04-23T22:06:21.137Z,19.60
2023-04-23T22:08:49.647Z,19.80
2023-04-23T22:11:19.124Z,19.01
2023-04-23T22:13:47.645Z,20.06
2023-04-23T22:16:27.592Z,20.47
2023-04-23T22:18:57.667Z,20.10
2023-04-23T22:21:26.193Z,19.73
2023-04-23T22:23:54.685Z,19.19
2023-04-23T22:26:23.136Z,19.46
2023-04-23T22:28:51.549Z,19.09
2023-04-23T22:31:20.076Z,19.46
2023-04-23T22:33:48.521Z,19.09
2023-04-23T22:36:17.043Z,19.31
2023-04-23T22:38:45.727Z,19.37
2023-04-23T22:41:14.184Z,18.94
2023-04-23T22:43:42.557Z,19.66
2023-04-23T22:46:11.125Z,19.94
2023-04-23T22:48:44.594Z,19.85
2023-04-23T22:51:14.109Z,19.38
2023-04-23T22:53:42.541Z,19.59
2023-04-23T22:56:11.019Z,19.33
2023-04-23T22:58:39.416Z,20.26
2023-04-23T23:01:07.970Z,19.81
2023-04-23T23:03:36.636Z,19.70
2023-04-23T23:06:05.595Z,19.39
2023-04-23T23:08:34.032Z,19.76
2023-04-23T23:11:02.461Z,19.50
2023-04-23T23:13:30.888Z,19.98
2023-04-23T23:16:02.322Z,19.98
2023-04-23T23:18:31.272Z,20.09
2023-04-23T23:20:59.696Z,19.93
2023-04-23T23:23:28.251Z,19.58
2023-04-23T23:25:59.867Z,19.82
2023-04-23T23:28:28.600Z,18.34
2023-04-23T23:30:57.794Z,18.93
2023-04-23T23:33:27.064Z,19.88
2023-04-23T23:35:57.187Z,19.35
2023-04-23T23:38:25.633Z,18.93
2023-04-23T23:40:54.101Z,20.03
2023-04-23T23:43:22.724Z,19.36
2023-04-23T23:45:51.112Z,19.13
2023-04-23T23:48:19.819Z,19.32
2023-04-23T23:50:48.328Z,19.01
2023-04-23T23:53:16.689Z,19.03
2023-04-23T23:55:45.198Z,19.40
2023-04-23T23:58:13.641Z,19.14
